sensor_id;sensor_type;location;lat;lon;timestamp;P1;durP1;ratioP1;P2;durP2;ratioP2
3811;SDS011;1921;49.368;11.068;2023-08-21T00:01:36;85.87;;;62.07;;
3811;SDS011;1921;49.368;11.068;2023-08-21T00:04:02;86.03;;;62.40;;
3811;SDS011;1921;49.368;11.068;2023-08-21T00:06:28;89.33;;;62.00;;
3811;SDS011;1921;49.368;11.068;2023-08-21T00:08:54;90.70;;;61.90;;
3811;SDS011;1921;49.368;11.068;2023-08-21T00:11:19;90.00;;;61.93;;
3811;SDS011;1921;49.368;11.068;2023-08-21T00:13:45;91.50;;;63.23;;
3811;SDS011;1921;49.368;11.068;2023-08-21T00:16:13;84.80;;;61.90;;
3811;SDS011;1921;49.368;11.068;2023-08-21T00:18:39;82.20;;;61.20;;
3811;SDS011;1921;49.368;11.068;2023-08-21T00:21:05;83.53;;;61.93;;
3811;SDS011;1921;49.368;11.068;2023-08-21T00:23:30;87.63;;;62.07;;
3811;SDS011;1921;49.368;11.068;2023-08-21T00:25:56;85.10;;;61.80;;
3811;SDS011;1921;49.368;11.068;2023-08-21T00:28:22;93.10;;;61.03;;
3811;SDS011;1921;49.368;11.068;2023-08-21T00:30:48;88.50;;;63.00;;
3811;SDS011;1921;49.368;11.068;2023-08-21T00:33:14;86.23;;;62.37;;
3811;SDS011;1921;49.368;11.068;2023-08-21T00:35:40;85.17;;;62.07;;
3811;SDS011;1921;49.368;11.068;2023-08-21T00:38:07;89.20;;;62.80;;
3811;SDS011;1921;49.368;11.068;2023-08-21T00:40:33;87.60;;;62.20;;
3811;SDS011;1921;49.368;11.068;2023-08-21T00:42:59;83.47;;;61.00;;
3811;SDS011;1921;49.368;11.068;2023-08-21T00:45:24;89.07;;;63.07;;
3811;SDS011;1921;49.368;11.068;2023-08-21T00:47:51;87.93;;;62.07;;
3811;SDS011;1921;49.368;11.068;2023-08-21T00:50:16;89.80;;;62.83;;
3811;SDS011;1921;49.368;11.068;2023-08-21T00:52:43;87.53;;;63.10;;
3811;SDS011;1921;49.368;11.068;2023-08-21T00:55:11;85.47;;;62.67;;
3811;SDS011;1921;49.368;11.068;2023-08-21T00:57:38;84.40;;;62.30;;
3811;SDS011;1921;49.368;11.068;2023-08-21T01:00:05;86.93;;;61.70;;
3811;SDS011;1921;49.368;11.068;2023-08-21T01:02:35;86.53;;;61.40;;
3811;SDS011;1921;49.368;11.068;2023-08-21T01:05:01;85.60;;;61.87;;
3811;SDS011;1921;49.368;11.068;2023-08-21T01:07:26;91.10;;;61.70;;
3811;SDS011;1921;49.368;11.068;2023-08-21T01:10:00;87.30;;;61.80;;
3811;SDS011;1921;49.368;11.068;2023-08-21T01:12:35;87.13;;;63.43;;
3811;SDS011;1921;49.368;11.068;2023-08-21T01:15:13;83.60;;;62.77;;
3811;SDS011;1921;49.368;11.068;2023-08-21T01:17:39;91.10;;;63.50;;
3811;SDS011;1921;49.368;11.068;2023-08-21T01:20:07;85.17;;;62.23;;
3811;SDS011;1921;49.368;11.068;2023-08-21T01:22:38;88.37;;;63.50;;
3811;SDS011;1921;49.368;11.068;2023-08-21T01:25:06;84.20;;;61.60;;
3811;SDS011;1921;49.368;11.068;2023-08-21T01:27:33;87.63;;;62.90;;
3811;SDS011;1921;49.368;11.068;2023-08-21T01:30:00;90.00;;;63.07;;
3811;SDS011;1921;49.368;11.068;2023-08-21T01:34:57;84.00;;;61.80;;
3811;SDS011;1921;49.368;11.068;2023-08-21T01:37:24;86.90;;;61.67;;
3811;SDS011;1921;49.368;11.068;2023-08-21T01:39:51;85.60;;;62.27;;
3811;SDS011;1921;49.368;11.068;2023-08-21T01:42:17;88.60;;;63.73;;
3811;SDS011;1921;49.368;11.068;2023-08-21T01:44:43;93.20;;;63.00;;
3811;SDS011;1921;49.368;11.068;2023-08-21T01:47:11;86.13;;;62.50;;
3811;SDS011;1921;49.368;11.068;2023-08-21T01:49:37;86.70;;;62.83;;
3811;SDS011;1921;49.368;11.068;2023-08-21T01:52:03;93.50;;;64.53;;
3811;SDS011;1921;49.368;11.068;2023-08-21T01:54:29;90.27;;;65.47;;
3811;SDS011;1921;49.368;11.068;2023-08-21T01:56:55;93.40;;;66.27;;
3811;SDS011;1921;49.368;11.068;2023-08-21T01:59:23;93.73;;;65.73;;
3811;SDS011;1921;49.368;11.068;2023-08-21T02:01:49;95.93;;;66.37;;
3811;SDS011;1921;49.368;11.068;2023-08-21T02:04:15;98.37;;;67.70;;
3811;SDS011;1921;49.368;11.068;2023-08-21T02:06:41;94.33;;;68.73;;
3811;SDS011;1921;49.368;11.068;2023-08-21T02:09:09;95.23;;;66.90;;
3811;SDS011;1921;49.368;11.068;2023-08-21T02:11:35;100.40;;;69.40;;
3811;SDS011;1921;49.368;11.068;2023-08-21T02:14:01;98.67;;;68.07;;
3811;SDS011;1921;49.368;11.068;2023-08-21T02:16:27;101.27;;;71.70;;
3811;SDS011;1921;49.368;11.068;2023-08-21T02:18:52;98.70;;;70.20;;
3811;SDS011;1921;49.368;11.068;2023-08-21T02:21:18;100.97;;;71.67;;
3811;SDS011;1921;49.368;11.068;2023-08-21T02:23:44;100.80;;;72.37;;
3811;SDS011;1921;49.368;11.068;2023-08-21T02:26:10;105.93;;;72.23;;
3811;SDS011;1921;49.368;11.068;2023-08-21T02:28:36;108.50;;;73.60;;
3811;SDS011;1921;49.368;11.068;2023-08-21T02:31:01;103.93;;;73.90;;
3811;SDS011;1921;49.368;11.068;2023-08-21T02:33:27;103.37;;;73.20;;
3811;SDS011;1921;49.368;11.068;2023-08-21T02:35:53;109.57;;;72.27;;
3811;SDS011;1921;49.368;11.068;2023-08-21T02:38:19;108.07;;;73.37;;
3811;SDS011;1921;49.368;11.068;2023-08-21T02:40:44;111.43;;;74.20;;
3811;SDS011;1921;49.368;11.068;2023-08-21T02:43:10;105.30;;;72.87;;
3811;SDS011;1921;49.368;11.068;2023-08-21T02:45:36;108.57;;;73.90;;
3811;SDS011;1921;49.368;11.068;2023-08-21T02:48:02;111.30;;;75.00;;
3811;SDS011;1921;49.368;11.068;2023-08-21T02:50:28;107.20;;;74.00;;
3811;SDS011;1921;49.368;11.068;2023-08-21T02:52:53;108.43;;;73.87;;
3811;SDS011;1921;49.368;11.068;2023-08-21T02:55:19;110.40;;;75.50;;
3811;SDS011;1921;49.368;11.068;2023-08-21T02:57:45;106.10;;;73.40;;
3811;SDS011;1921;49.368;11.068;2023-08-21T03:00:11;103.87;;;72.40;;
3811;SDS011;1921;49.368;11.068;2023-08-21T03:02:37;106.30;;;75.20;;
3811;SDS011;1921;49.368;11.068;2023-08-21T03:05:07;113.27;;;76.10;;
3811;SDS011;1921;49.368;11.068;2023-08-21T03:07:34;106.97;;;73.73;;
3811;SDS011;1921;49.368;11.068;2023-08-21T03:10:00;113.20;;;73.63;;
3811;SDS011;1921;49.368;11.068;2023-08-21T03:12:27;111.93;;;75.53;;
3811;SDS011;1921;49.368;11.068;2023-08-21T03:14:53;111.03;;;74.20;;
3811;SDS011;1921;49.368;11.068;2023-08-21T03:17:19;110.00;;;73.50;;
3811;SDS011;1921;49.368;11.068;2023-08-21T03:19:44;105.20;;;73.70;;
3811;SDS011;1921;49.368;11.068;2023-08-21T03:22:10;113.90;;;77.30;;
3811;SDS011;1921;49.368;11.068;2023-08-21T03:24:36;114.90;;;76.77;;
3811;SDS011;1921;49.368;11.068;2023-08-21T03:27:02;114.30;;;76.40;;
3811;SDS011;1921;49.368;11.068;2023-08-21T03:29:28;117.73;;;77.50;;
3811;SDS011;1921;49.368;11.068;2023-08-21T03:31:54;111.57;;;76.77;;
3811;SDS011;1921;49.368;11.068;2023-08-21T03:34:20;115.70;;;76.33;;
3811;SDS011;1921;49.368;11.068;2023-08-21T03:36:45;119.47;;;78.90;;
3811;SDS011;1921;49.368;11.068;2023-08-21T03:39:11;117.90;;;77.00;;
3811;SDS011;1921;49.368;11.068;2023-08-21T03:41:37;123.43;;;80.20;;
3811;SDS011;1921;49.368;11.068;2023-08-21T03:44:03;124.23;;;80.20;;
3811;SDS011;1921;49.368;11.068;2023-08-21T03:46:29;122.07;;;81.53;;
3811;SDS011;1921;49.368;11.068;2023-08-21T03:48:54;126.17;;;81.37;;
3811;SDS011;1921;49.368;11.068;2023-08-21T03:51:20;114.37;;;77.80;;
3811;SDS011;1921;49.368;11.068;2023-08-21T03:53:46;115.63;;;78.87;;
3811;SDS011;1921;49.368;11.068;2023-08-21T03:56:12;118.23;;;79.20;;
3811;SDS011;1921;49.368;11.068;2023-08-21T03:58:37;114.87;;;77.37;;
3811;SDS011;1921;49.368;11.068;2023-08-21T04:01:03;111.00;;;76.87;;
3811;SDS011;1921;49.368;11.068;2023-08-21T04:03:29;108.77;;;76.77;;
3811;SDS011;1921;49.368;11.068;2023-08-21T04:05:55;120.40;;;78.13;;
3811;SDS011;1921;49.368;11.068;2023-08-21T04:08:21;104.83;;;74.30;;
3811;SDS011;1921;49.368;11.068;2023-08-21T04:10:48;108.47;;;75.33;;
3811;SDS011;1921;49.368;11.068;2023-08-21T04:13:13;117.77;;;79.03;;
3811;SDS011;1921;49.368;11.068;2023-08-21T04:15:43;113.90;;;78.00;;
3811;SDS011;1921;49.368;11.068;2023-08-21T04:18:10;114.13;;;77.27;;
3811;SDS011;1921;49.368;11.068;2023-08-21T04:20:36;116.73;;;79.60;;
3811;SDS011;1921;49.368;11.068;2023-08-21T04:23:02;116.23;;;78.43;;
3811;SDS011;1921;49.368;11.068;2023-08-21T04:25:28;118.50;;;78.37;;
3811;SDS011;1921;49.368;11.068;2023-08-21T04:27:54;111.67;;;77.83;;
3811;SDS011;1921;49.368;11.068;2023-08-21T04:30:20;112.87;;;79.73;;
3811;SDS011;1921;49.368;11.068;2023-08-21T04:32:46;111.40;;;76.10;;
3811;SDS011;1921;49.368;11.068;2023-08-21T04:35:12;118.03;;;79.83;;
3811;SDS011;1921;49.368;11.068;2023-08-21T04:37:42;120.97;;;80.27;;
3811;SDS011;1921;49.368;11.068;2023-08-21T04:40:12;113.33;;;76.30;;
3811;SDS011;1921;49.368;11.068;2023-08-21T04:42:38;118.93;;;79.77;;
3811;SDS011;1921;49.368;11.068;2023-08-21T04:45:04;122.20;;;78.60;;
3811;SDS011;1921;49.368;11.068;2023-08-21T04:47:30;121.13;;;78.67;;
3811;SDS011;1921;49.368;11.068;2023-08-21T04:49:57;119.80;;;79.50;;
3811;SDS011;1921;49.368;11.068;2023-08-21T04:52:23;116.30;;;77.87;;
3811;SDS011;1921;49.368;11.068;2023-08-21T04:54:50;114.87;;;79.43;;
3811;SDS011;1921;49.368;11.068;2023-08-21T04:57:17;112.73;;;79.63;;
3811;SDS011;1921;49.368;11.068;2023-08-21T04:59:43;112.93;;;77.70;;
3811;SDS011;1921;49.368;11.068;2023-08-21T05:02:09;116.97;;;76.73;;
3811;SDS011;1921;49.368;11.068;2023-08-21T05:04:36;111.63;;;77.63;;
3811;SDS011;1921;49.368;11.068;2023-08-21T05:07:02;109.07;;;75.30;;
3811;SDS011;1921;49.368;11.068;2023-08-21T05:09:29;104.63;;;73.77;;
3811;SDS011;1921;49.368;11.068;2023-08-21T05:11:55;103.40;;;73.20;;
3811;SDS011;1921;49.368;11.068;2023-08-21T05:14:21;100.67;;;72.97;;
3811;SDS011;1921;49.368;11.068;2023-08-21T05:16:48;100.90;;;71.60;;
3811;SDS011;1921;49.368;11.068;2023-08-21T05:19:15;103.20;;;71.33;;
3811;SDS011;1921;49.368;11.068;2023-08-21T05:21:41;105.83;;;74.83;;
3811;SDS011;1921;49.368;11.068;2023-08-21T05:24:08;105.60;;;72.17;;
3811;SDS011;1921;49.368;11.068;2023-08-21T05:26:35;104.23;;;73.27;;
3811;SDS011;1921;49.368;11.068;2023-08-21T05:29:01;108.30;;;73.93;;
3811;SDS011;1921;49.368;11.068;2023-08-21T05:31:28;108.27;;;73.80;;
3811;SDS011;1921;49.368;11.068;2023-08-21T05:33:53;101.40;;;70.80;;
3811;SDS011;1921;49.368;11.068;2023-08-21T05:36:19;103.17;;;71.77;;
3811;SDS011;1921;49.368;11.068;2023-08-21T05:38:45;103.50;;;74.10;;
3811;SDS011;1921;49.368;11.068;2023-08-21T05:41:13;100.27;;;71.47;;
3811;SDS011;1921;49.368;11.068;2023-08-21T05:43:39;99.63;;;69.80;;
3811;SDS011;1921;49.368;11.068;2023-08-21T05:46:07;101.87;;;70.83;;
3811;SDS011;1921;49.368;11.068;2023-08-21T05:48:33;99.77;;;71.40;;
3811;SDS011;1921;49.368;11.068;2023-08-21T05:50:59;99.47;;;69.43;;
3811;SDS011;1921;49.368;11.068;2023-08-21T05:53:25;103.03;;;71.30;;
3811;SDS011;1921;49.368;11.068;2023-08-21T05:55:51;98.57;;;72.37;;
3811;SDS011;1921;49.368;11.068;2023-08-21T05:58:17;99.00;;;69.97;;
3811;SDS011;1921;49.368;11.068;2023-08-21T06:00:43;99.10;;;70.90;;
3811;SDS011;1921;49.368;11.068;2023-08-21T06:03:09;102.20;;;72.30;;
3811;SDS011;1921;49.368;11.068;2023-08-21T06:05:35;97.37;;;71.03;;
3811;SDS011;1921;49.368;11.068;2023-08-21T06:08:01;101.70;;;72.57;;
3811;SDS011;1921;49.368;11.068;2023-08-21T06:10:27;101.50;;;72.37;;
3811;SDS011;1921;49.368;11.068;2023-08-21T06:12:53;98.60;;;71.03;;
3811;SDS011;1921;49.368;11.068;2023-08-21T06:15:19;105.43;;;74.37;;
3811;SDS011;1921;49.368;11.068;2023-08-21T06:17:44;98.30;;;71.13;;
3811;SDS011;1921;49.368;11.068;2023-08-21T06:20:10;105.20;;;72.47;;
3811;SDS011;1921;49.368;11.068;2023-08-21T06:22:38;107.90;;;72.50;;
3811;SDS011;1921;49.368;11.068;2023-08-21T06:25:05;113.57;;;74.47;;
3811;SDS011;1921;49.368;11.068;2023-08-21T06:27:31;97.77;;;71.17;;
3811;SDS011;1921;49.368;11.068;2023-08-21T06:29:56;97.47;;;70.20;;
3811;SDS011;1921;49.368;11.068;2023-08-21T06:32:22;101.20;;;70.80;;
3811;SDS011;1921;49.368;11.068;2023-08-21T06:34:48;109.60;;;71.87;;
3811;SDS011;1921;49.368;11.068;2023-08-21T06:37:14;102.10;;;71.40;;
3811;SDS011;1921;49.368;11.068;2023-08-21T06:39:39;100.10;;;72.47;;
3811;SDS011;1921;49.368;11.068;2023-08-21T06:42:05;99.93;;;70.70;;
3811;SDS011;1921;49.368;11.068;2023-08-21T06:44:31;105.60;;;71.67;;
3811;SDS011;1921;49.368;11.068;2023-08-21T06:46:57;101.37;;;73.67;;
3811;SDS011;1921;49.368;11.068;2023-08-21T06:49:23;102.00;;;72.97;;
3811;SDS011;1921;49.368;11.068;2023-08-21T06:51:49;98.27;;;71.30;;
3811;SDS011;1921;49.368;11.068;2023-08-21T06:54:15;99.97;;;71.77;;
3811;SDS011;1921;49.368;11.068;2023-08-21T06:56:42;105.80;;;71.00;;
3811;SDS011;1921;49.368;11.068;2023-08-21T06:59:09;104.30;;;72.47;;
3811;SDS011;1921;49.368;11.068;2023-08-21T07:01:34;104.70;;;71.57;;
3811;SDS011;1921;49.368;11.068;2023-08-21T07:04:00;100.83;;;71.20;;
3811;SDS011;1921;49.368;11.068;2023-08-21T07:06:30;102.53;;;70.93;;
3811;SDS011;1921;49.368;11.068;2023-08-21T07:08:56;107.93;;;72.53;;
3811;SDS011;1921;49.368;11.068;2023-08-21T07:11:22;100.60;;;73.23;;
3811;SDS011;1921;49.368;11.068;2023-08-21T07:13:48;104.30;;;72.30;;
3811;SDS011;1921;49.368;11.068;2023-08-21T07:16:14;104.97;;;72.40;;
3811;SDS011;1921;49.368;11.068;2023-08-21T07:18:39;99.80;;;72.20;;
3811;SDS011;1921;49.368;11.068;2023-08-21T07:21:05;107.03;;;72.50;;
3811;SDS011;1921;49.368;11.068;2023-08-21T07:23:31;102.10;;;70.67;;
3811;SDS011;1921;49.368;11.068;2023-08-21T07:25:58;98.53;;;70.33;;
3811;SDS011;1921;49.368;11.068;2023-08-21T07:28:24;99.17;;;71.20;;
3811;SDS011;1921;49.368;11.068;2023-08-21T07:30:59;110.77;;;72.23;;
3811;SDS011;1921;49.368;11.068;2023-08-21T07:33:25;105.30;;;73.40;;
3811;SDS011;1921;49.368;11.068;2023-08-21T07:36:01;100.17;;;73.07;;
3811;SDS011;1921;49.368;11.068;2023-08-21T07:38:28;103.90;;;71.97;;
3811;SDS011;1921;49.368;11.068;2023-08-21T07:41:08;101.33;;;72.80;;
3811;SDS011;1921;49.368;11.068;2023-08-21T07:43:36;102.50;;;72.17;;
3811;SDS011;1921;49.368;11.068;2023-08-21T07:46:06;99.50;;;70.90;;
3811;SDS011;1921;49.368;11.068;2023-08-21T07:48:34;107.40;;;71.50;;
3811;SDS011;1921;49.368;11.068;2023-08-21T07:51:00;102.00;;;68.00;;
3811;SDS011;1921;49.368;11.068;2023-08-21T07:53:27;103.80;;;70.90;;
3811;SDS011;1921;49.368;11.068;2023-08-21T07:55:52;100.07;;;71.20;;
3811;SDS011;1921;49.368;11.068;2023-08-21T07:58:19;97.90;;;69.00;;
3811;SDS011;1921;49.368;11.068;2023-08-21T08:00:45;98.20;;;70.27;;
3811;SDS011;1921;49.368;11.068;2023-08-21T08:03:11;99.80;;;69.03;;
3811;SDS011;1921;49.368;11.068;2023-08-21T08:05:39;96.43;;;71.17;;
3811;SDS011;1921;49.368;11.068;2023-08-21T08:08:05;98.87;;;71.83;;
3811;SDS011;1921;49.368;11.068;2023-08-21T08:10:31;95.90;;;69.67;;
3811;SDS011;1921;49.368;11.068;2023-08-21T08:12:58;100.40;;;70.50;;
3811;SDS011;1921;49.368;11.068;2023-08-21T08:15:24;96.13;;;68.63;;
3811;SDS011;1921;49.368;11.068;2023-08-21T08:17:50;97.10;;;71.10;;
3811;SDS011;1921;49.368;11.068;2023-08-21T08:20:18;98.27;;;71.33;;
3811;SDS011;1921;49.368;11.068;2023-08-21T08:22:46;97.70;;;69.63;;
3811;SDS011;1921;49.368;11.068;2023-08-21T08:25:12;95.65;;;71.13;;
3811;SDS011;1921;49.368;11.068;2023-08-21T08:27:38;107.22;;;69.50;;
3811;SDS011;1921;49.368;11.068;2023-08-21T08:30:05;96.78;;;67.57;;
3811;SDS011;1921;49.368;11.068;2023-08-21T08:32:32;99.72;;;68.65;;
3811;SDS011;1921;49.368;11.068;2023-08-21T08:34:58;94.95;;;67.78;;
3811;SDS011;1921;49.368;11.068;2023-08-21T08:37:24;106.35;;;68.78;;
3811;SDS011;1921;49.368;11.068;2023-08-21T08:39:49;92.85;;;68.18;;
3811;SDS011;1921;49.368;11.068;2023-08-21T08:42:15;98.85;;;72.00;;
3811;SDS011;1921;49.368;11.068;2023-08-21T08:44:42;97.28;;;70.20;;
3811;SDS011;1921;49.368;11.068;2023-08-21T08:47:10;89.55;;;61.42;;
3811;SDS011;1921;49.368;11.068;2023-08-21T08:49:39;84.38;;;59.42;;
3811;SDS011;1921;49.368;11.068;2023-08-21T08:52:05;86.80;;;62.25;;
3811;SDS011;1921;49.368;11.068;2023-08-21T08:54:32;90.57;;;65.57;;
3811;SDS011;1921;49.368;11.068;2023-08-21T08:57:00;100.88;;;68.05;;
3811;SDS011;1921;49.368;11.068;2023-08-21T08:59:28;93.65;;;67.32;;
3811;SDS011;1921;49.368;11.068;2023-08-21T09:01:56;92.65;;;67.25;;
3811;SDS011;1921;49.368;11.068;2023-08-21T09:04:22;99.70;;;68.28;;
3811;SDS011;1921;49.368;11.068;2023-08-21T09:06:48;87.85;;;63.35;;
3811;SDS011;1921;49.368;11.068;2023-08-21T09:09:13;86.80;;;61.22;;
3811;SDS011;1921;49.368;11.068;2023-08-21T09:11:43;92.73;;;67.47;;
3811;SDS011;1921;49.368;11.068;2023-08-21T09:14:09;97.30;;;66.70;;
3811;SDS011;1921;49.368;11.068;2023-08-21T09:16:36;91.03;;;66.30;;
3811;SDS011;1921;49.368;11.068;2023-08-21T09:19:02;93.03;;;67.43;;
3811;SDS011;1921;49.368;11.068;2023-08-21T09:21:28;89.68;;;66.97;;
3811;SDS011;1921;49.368;11.068;2023-08-21T09:23:58;96.50;;;67.97;;
3811;SDS011;1921;49.368;11.068;2023-08-21T09:26:31;92.50;;;68.53;;
3811;SDS011;1921;49.368;11.068;2023-08-21T09:28:58;89.38;;;66.05;;
3811;SDS011;1921;49.368;11.068;2023-08-21T09:31:30;93.13;;;67.97;;
3811;SDS011;1921;49.368;11.068;2023-08-21T09:34:01;91.68;;;68.03;;
3811;SDS011;1921;49.368;11.068;2023-08-21T09:36:33;92.80;;;64.78;;
3811;SDS011;1921;49.368;11.068;2023-08-21T09:38:59;89.00;;;65.57;;
3811;SDS011;1921;49.368;11.068;2023-08-21T09:41:25;87.57;;;63.00;;
3811;SDS011;1921;49.368;11.068;2023-08-21T09:43:52;89.57;;;65.68;;
3811;SDS011;1921;49.368;11.068;2023-08-21T09:46:23;86.90;;;64.28;;
3811;SDS011;1921;49.368;11.068;2023-08-21T09:48:54;88.78;;;65.18;;
3811;SDS011;1921;49.368;11.068;2023-08-21T09:51:20;85.97;;;63.92;;
3811;SDS011;1921;49.368;11.068;2023-08-21T09:53:47;89.38;;;63.58;;
3811;SDS011;1921;49.368;11.068;2023-08-21T09:56:14;89.05;;;63.38;;
3811;SDS011;1921;49.368;11.068;2023-08-21T09:58:45;88.28;;;64.57;;
3811;SDS011;1921;49.368;11.068;2023-08-21T10:01:16;90.75;;;64.35;;
3811;SDS011;1921;49.368;11.068;2023-08-21T10:03:45;83.68;;;62.30;;
3811;SDS011;1921;49.368;11.068;2023-08-21T10:06:15;88.25;;;63.83;;
3811;SDS011;1921;49.368;11.068;2023-08-21T10:08:45;84.88;;;61.97;;
3811;SDS011;1921;49.368;11.068;2023-08-21T10:11:14;90.57;;;63.65;;
3811;SDS011;1921;49.368;11.068;2023-08-21T10:13:44;84.68;;;62.35;;
3811;SDS011;1921;49.368;11.068;2023-08-21T10:16:11;85.93;;;61.28;;
3811;SDS011;1921;49.368;11.068;2023-08-21T10:18:37;83.03;;;61.80;;
3811;SDS011;1921;49.368;11.068;2023-08-21T10:21:15;84.55;;;61.88;;
3811;SDS011;1921;49.368;11.068;2023-08-21T10:23:47;84.60;;;62.78;;
3811;SDS011;1921;49.368;11.068;2023-08-21T10:26:19;86.57;;;63.17;;
3811;SDS011;1921;49.368;11.068;2023-08-21T10:28:48;83.40;;;61.13;;
3811;SDS011;1921;49.368;11.068;2023-08-21T10:31:34;79.03;;;57.80;;
3811;SDS011;1921;49.368;11.068;2023-08-21T10:34:13;81.03;;;61.40;;
3811;SDS011;1921;49.368;11.068;2023-08-21T10:39:12;84.72;;;62.00;;
3811;SDS011;1921;49.368;11.068;2023-08-21T10:42:36;81.38;;;59.17;;
3811;SDS011;1921;49.368;11.068;2023-08-21T10:47:18;81.40;;;60.90;;
3811;SDS011;1921;49.368;11.068;2023-08-21T10:49:46;83.43;;;61.80;;
3811;SDS011;1921;49.368;11.068;2023-08-21T10:52:15;81.70;;;60.25;;
3811;SDS011;1921;49.368;11.068;2023-08-21T10:54:54;84.47;;;60.88;;
3811;SDS011;1921;49.368;11.068;2023-08-21T10:57:23;84.35;;;61.22;;
3811;SDS011;1921;49.368;11.068;2023-08-21T11:02:21;82.93;;;60.80;;
3811;SDS011;1921;49.368;11.068;2023-08-21T11:04:52;85.20;;;62.38;;
3811;SDS011;1921;49.368;11.068;2023-08-21T11:07:18;82.57;;;61.38;;
3811;SDS011;1921;49.368;11.068;2023-08-21T11:09:44;89.82;;;61.90;;
3811;SDS011;1921;49.368;11.068;2023-08-21T11:12:11;83.38;;;61.53;;
3811;SDS011;1921;49.368;11.068;2023-08-21T11:14:39;86.15;;;61.55;;
3811;SDS011;1921;49.368;11.068;2023-08-21T11:17:05;89.43;;;62.05;;
3811;SDS011;1921;49.368;11.068;2023-08-21T11:19:33;86.63;;;62.53;;
3811;SDS011;1921;49.368;11.068;2023-08-21T11:22:00;85.43;;;62.83;;
3811;SDS011;1921;49.368;11.068;2023-08-21T11:24:38;84.88;;;62.90;;
3811;SDS011;1921;49.368;11.068;2023-08-21T11:27:13;84.03;;;62.08;;
3811;SDS011;1921;49.368;11.068;2023-08-21T11:29:47;88.10;;;62.95;;
3811;SDS011;1921;49.368;11.068;2023-08-21T11:32:19;85.50;;;61.92;;
3811;SDS011;1921;49.368;11.068;2023-08-21T11:34:50;86.03;;;62.17;;
3811;SDS011;1921;49.368;11.068;2023-08-21T11:37:20;85.20;;;62.40;;
3811;SDS011;1921;49.368;11.068;2023-08-21T11:39:49;86.03;;;62.25;;
3811;SDS011;1921;49.368;11.068;2023-08-21T11:42:32;85.00;;;62.95;;
3811;SDS011;1921;49.368;11.068;2023-08-21T11:45:02;93.20;;;62.20;;
3811;SDS011;1921;49.368;11.068;2023-08-21T11:47:31;85.25;;;61.65;;
3811;SDS011;1921;49.368;11.068;2023-08-21T11:50:06;88.57;;;62.15;;
3811;SDS011;1921;49.368;11.068;2023-08-21T11:55:17;80.80;;;59.88;;
3811;SDS011;1921;49.368;11.068;2023-08-21T11:57:48;83.28;;;61.97;;
3811;SDS011;1921;49.368;11.068;2023-08-21T12:00:15;86.43;;;61.92;;
3811;SDS011;1921;49.368;11.068;2023-08-21T12:02:54;86.93;;;61.25;;
3811;SDS011;1921;49.368;11.068;2023-08-21T12:05:26;83.20;;;61.22;;
3811;SDS011;1921;49.368;11.068;2023-08-21T12:07:54;84.00;;;60.22;;
3811;SDS011;1921;49.368;11.068;2023-08-21T12:10:24;86.97;;;61.25;;
3811;SDS011;1921;49.368;11.068;2023-08-21T12:12:52;82.63;;;60.47;;
3811;SDS011;1921;49.368;11.068;2023-08-21T12:15:18;85.03;;;61.30;;
3811;SDS011;1921;49.368;11.068;2023-08-21T12:17:44;79.55;;;60.10;;
3811;SDS011;1921;49.368;11.068;2023-08-21T12:20:10;81.85;;;61.08;;
3811;SDS011;1921;49.368;11.068;2023-08-21T12:22:37;85.07;;;60.97;;
3811;SDS011;1921;49.368;11.068;2023-08-21T12:25:04;81.50;;;60.78;;
3811;SDS011;1921;49.368;11.068;2023-08-21T12:27:32;88.53;;;62.10;;
3811;SDS011;1921;49.368;11.068;2023-08-21T12:29:57;86.82;;;62.10;;
3811;SDS011;1921;49.368;11.068;2023-08-21T12:32:24;82.75;;;61.75;;
3811;SDS011;1921;49.368;11.068;2023-08-21T12:34:50;84.13;;;60.90;;
3811;SDS011;1921;49.368;11.068;2023-08-21T12:37:16;82.63;;;61.85;;
3811;SDS011;1921;49.368;11.068;2023-08-21T12:39:42;87.68;;;61.58;;
3811;SDS011;1921;49.368;11.068;2023-08-21T12:42:08;82.75;;;61.72;;
3811;SDS011;1921;49.368;11.068;2023-08-21T12:44:34;84.18;;;61.95;;
3811;SDS011;1921;49.368;11.068;2023-08-21T12:47:00;88.72;;;63.33;;
3811;SDS011;1921;49.368;11.068;2023-08-21T12:49:25;85.53;;;63.03;;
3811;SDS011;1921;49.368;11.068;2023-08-21T12:51:51;88.93;;;64.50;;
3811;SDS011;1921;49.368;11.068;2023-08-21T12:54:17;83.70;;;63.22;;
3811;SDS011;1921;49.368;11.068;2023-08-21T12:56:43;85.53;;;62.50;;
3811;SDS011;1921;49.368;11.068;2023-08-21T12:59:09;83.43;;;63.13;;
3811;SDS011;1921;49.368;11.068;2023-08-21T13:01:35;82.38;;;61.72;;
3811;SDS011;1921;49.368;11.068;2023-08-21T13:04:02;86.10;;;63.67;;
3811;SDS011;1921;49.368;11.068;2023-08-21T13:06:28;83.78;;;62.25;;
3811;SDS011;1921;49.368;11.068;2023-08-21T13:08:54;86.10;;;63.17;;
3811;SDS011;1921;49.368;11.068;2023-08-21T13:11:19;85.72;;;62.67;;
3811;SDS011;1921;49.368;11.068;2023-08-21T13:13:45;85.03;;;62.47;;
3811;SDS011;1921;49.368;11.068;2023-08-21T13:16:11;84.82;;;62.40;;
3811;SDS011;1921;49.368;11.068;2023-08-21T13:18:37;88.65;;;62.42;;
3811;SDS011;1921;49.368;11.068;2023-08-21T13:21:02;83.88;;;62.10;;
3811;SDS011;1921;49.368;11.068;2023-08-21T13:23:29;80.97;;;61.13;;
3811;SDS011;1921;49.368;11.068;2023-08-21T13:25:55;81.20;;;60.72;;
3811;SDS011;1921;49.368;11.068;2023-08-21T13:28:25;79.68;;;61.00;;
3811;SDS011;1921;49.368;11.068;2023-08-21T13:30:51;83.68;;;61.58;;
3811;SDS011;1921;49.368;11.068;2023-08-21T13:33:17;84.65;;;61.67;;
3811;SDS011;1921;49.368;11.068;2023-08-21T13:35:47;83.88;;;61.78;;
3811;SDS011;1921;49.368;11.068;2023-08-21T13:38:13;91.00;;;61.78;;
3811;SDS011;1921;49.368;11.068;2023-08-21T13:40:39;81.40;;;61.08;;
3811;SDS011;1921;49.368;11.068;2023-08-21T13:43:08;83.05;;;61.08;;
3811;SDS011;1921;49.368;11.068;2023-08-21T13:45:35;82.25;;;61.28;;
3811;SDS011;1921;49.368;11.068;2023-08-21T13:48:01;81.13;;;61.33;;
3811;SDS011;1921;49.368;11.068;2023-08-21T13:50:29;82.40;;;61.53;;
3811;SDS011;1921;49.368;11.068;2023-08-21T13:52:54;81.65;;;61.25;;
3811;SDS011;1921;49.368;11.068;2023-08-21T13:55:21;82.75;;;61.92;;
3811;SDS011;1921;49.368;11.068;2023-08-21T13:57:47;87.40;;;60.75;;
3811;SDS011;1921;49.368;11.068;2023-08-21T14:00:14;80.07;;;59.90;;
3811;SDS011;1921;49.368;11.068;2023-08-21T14:02:42;77.55;;;57.85;;
3811;SDS011;1921;49.368;11.068;2023-08-21T14:05:08;78.13;;;58.60;;
3811;SDS011;1921;49.368;11.068;2023-08-21T14:07:35;81.80;;;61.25;;
3811;SDS011;1921;49.368;11.068;2023-08-21T14:10:02;87.80;;;60.60;;
3811;SDS011;1921;49.368;11.068;2023-08-21T14:12:32;84.85;;;61.08;;
3811;SDS011;1921;49.368;11.068;2023-08-21T14:14:58;81.97;;;60.50;;
3811;SDS011;1921;49.368;11.068;2023-08-21T14:17:25;84.93;;;60.90;;
3811;SDS011;1921;49.368;11.068;2023-08-21T14:19:51;82.35;;;61.28;;
3811;SDS011;1921;49.368;11.068;2023-08-21T14:22:16;82.68;;;60.33;;
3811;SDS011;1921;49.368;11.068;2023-08-21T14:24:42;81.45;;;61.33;;
3811;SDS011;1921;49.368;11.068;2023-08-21T14:27:08;85.05;;;60.55;;
3811;SDS011;1921;49.368;11.068;2023-08-21T14:29:34;83.78;;;61.13;;
3811;SDS011;1921;49.368;11.068;2023-08-21T14:31:59;81.47;;;61.15;;
3811;SDS011;1921;49.368;11.068;2023-08-21T14:34:25;83.40;;;60.88;;
3811;SDS011;1921;49.368;11.068;2023-08-21T14:36:54;82.78;;;60.90;;
3811;SDS011;1921;49.368;11.068;2023-08-21T14:39:21;82.32;;;60.85;;
3811;SDS011;1921;49.368;11.068;2023-08-21T14:41:53;86.25;;;60.67;;
3811;SDS011;1921;49.368;11.068;2023-08-21T14:44:22;83.07;;;60.17;;